createdAt,value
2018-12-02T00:00:57.593Z,11.30
2018-12-02T00:03:24.850Z,11.30
2018-12-02T00:05:52.485Z,11.30
2018-12-02T00:08:20.175Z,11.30
2018-12-02T00:10:47.757Z,11.30
2018-12-02T00:13:15.917Z,11.30
2018-12-02T00:15:43.205Z,11.30
2018-12-02T00:18:10.586Z,11.30
2018-12-02T00:20:38.001Z,11.30
2018-12-02T00:23:05.384Z,11.30
2018-12-02T00:25:32.677Z,11.30
2018-12-02T00:28:00.379Z,11.40
2018-12-02T00:30:27.930Z,11.40
2018-12-02T00:32:55.281Z,11.40
2018-12-02T00:35:22.723Z,11.40
2018-12-02T00:37:50.488Z,11.40
2018-12-02T00:40:18.136Z,11.40
2018-12-02T00:42:46.094Z,11.40
2018-12-02T00:45:13.464Z,11.40
2018-12-02T00:47:40.930Z,11.40
2018-12-02T00:50:08.425Z,11.40
2018-12-02T00:52:35.754Z,11.40
2018-12-02T00:55:03.268Z,11.40
2018-12-02T00:57:31.100Z,11.40
2018-12-02T00:59:58.596Z,11.40
2018-12-02T01:02:26.162Z,11.40
2018-12-02T01:04:53.532Z,11.40
2018-12-02T01:07:20.821Z,11.50
2018-12-02T01:09:48.200Z,11.50
2018-12-02T01:12:15.574Z,11.40
2018-12-02T01:14:42.840Z,11.40
2018-12-02T01:17:11.049Z,11.50
2018-12-02T01:19:38.405Z,11.50
2018-12-02T01:22:05.893Z,11.50
2018-12-02T01:24:33.243Z,11.50
2018-12-02T01:27:00.893Z,11.50
2018-12-02T01:29:28.147Z,11.50
2018-12-02T01:31:55.493Z,11.50
2018-12-02T01:34:22.934Z,11.50
2018-12-02T01:36:50.300Z,11.50
2018-12-02T01:39:17.867Z,11.50
2018-12-02T01:41:45.646Z,11.60
2018-12-02T01:44:13.018Z,11.50
2018-12-02T01:46:40.481Z,11.50
2018-12-02T01:49:07.855Z,11.60
2018-12-02T01:51:35.252Z,11.50
2018-12-02T01:54:02.826Z,11.60
2018-12-02T01:56:30.099Z,11.60
2018-12-02T01:58:57.591Z,11.60
2018-12-02T02:01:24.867Z,11.60
2018-12-02T02:03:52.503Z,11.60
2018-12-02T02:06:19.800Z,11.60
2018-12-02T02:08:47.592Z,11.60
2018-12-02T02:11:14.830Z,11.60
2018-12-02T02:13:42.589Z,11.60
2018-12-02T02:16:09.941Z,11.60
2018-12-02T02:18:37.634Z,11.60
2018-12-02T02:21:05.026Z,11.60
2018-12-02T02:23:32.316Z,11.60
2018-12-02T02:25:59.748Z,11.60
2018-12-02T02:28:27.762Z,11.60
2018-12-02T02:30:55.255Z,11.70
2018-12-02T02:33:22.640Z,11.70
2018-12-02T02:35:49.932Z,11.70
2018-12-02T02:38:17.294Z,11.70
2018-12-02T02:40:45.225Z,11.70
2018-12-02T02:43:12.661Z,11.70
2018-12-02T02:45:40.035Z,11.70
2018-12-02T02:48:07.585Z,11.70
2018-12-02T02:50:34.916Z,11.70
2018-12-02T02:53:02.185Z,11.70
2018-12-02T02:55:29.832Z,11.70
2018-12-02T02:57:57.729Z,11.70
2018-12-02T03:00:25.509Z,11.70
2018-12-02T03:02:52.777Z,11.70
2018-12-02T03:05:20.611Z,11.70
2018-12-02T03:07:48.033Z,11.70
2018-12-02T03:10:15.438Z,11.70
2018-12-02T03:12:42.889Z,11.70
2018-12-02T03:15:10.809Z,11.80
2018-12-02T03:17:38.583Z,11.80
2018-12-02T03:20:06.059Z,11.80
2018-12-02T03:22:33.407Z,11.80
2018-12-02T03:25:00.937Z,11.70
2018-12-02T03:27:28.267Z,11.80
2018-12-02T03:29:55.772Z,11.80
2018-12-02T03:32:23.198Z,11.80
2018-12-02T03:34:50.684Z,11.80
2018-12-02T03:37:18.466Z,11.80
2018-12-02T03:39:45.864Z,11.80
2018-12-02T03:42:13.250Z,11.80
2018-12-02T03:44:40.651Z,11.80
2018-12-02T03:47:08.257Z,11.80
2018-12-02T03:49:35.689Z,11.80
2018-12-02T03:52:03.324Z,11.80
2018-12-02T03:54:30.972Z,11.80
2018-12-02T03:56:58.196Z,11.80
2018-12-02T03:59:25.529Z,11.80
2018-12-02T04:01:52.927Z,11.80
2018-12-02T04:04:20.417Z,11.90
2018-12-02T04:06:47.872Z,11.80
2018-12-02T04:09:15.280Z,11.80
2018-12-02T04:11:42.608Z,11.80
2018-12-02T04:14:09.962Z,11.90
2018-12-02T04:16:37.230Z,11.90
2018-12-02T04:19:04.755Z,11.90
2018-12-02T04:21:32.187Z,11.90
2018-12-02T04:23:59.493Z,11.90
2018-12-02T04:26:26.996Z,11.90
2018-12-02T04:28:54.910Z,11.90
2018-12-02T04:31:22.618Z,11.90
2018-12-02T04:33:50.028Z,11.90
2018-12-02T04:36:17.565Z,11.90
2018-12-02T04:38:44.823Z,11.90
2018-12-02T04:41:12.526Z,11.90
2018-12-02T04:43:39.797Z,11.90
2018-12-02T04:46:07.215Z,11.90
2018-12-02T04:48:34.889Z,12.00
2018-12-02T04:51:02.260Z,11.90
2018-12-02T04:53:29.872Z,11.90
2018-12-02T04:55:57.284Z,12.00
2018-12-02T04:58:24.693Z,11.90
2018-12-02T05:00:52.127Z,12.00
2018-12-02T05:03:19.528Z,12.00
2018-12-02T05:05:46.885Z,12.00
2018-12-02T05:08:14.743Z,12.00
2018-12-02T05:10:42.056Z,12.00
2018-12-02T05:13:09.351Z,12.00
2018-12-02T05:15:36.646Z,12.00
2018-12-02T05:18:04.006Z,12.00
2018-12-02T05:20:31.435Z,12.00
2018-12-02T05:22:58.778Z,12.00
2018-12-02T05:25:26.098Z,12.00
2018-12-02T05:27:53.433Z,12.00
2018-12-02T05:30:20.830Z,12.10
2018-12-02T05:32:48.438Z,12.10
2018-12-02T05:35:15.822Z,12.10
2018-12-02T05:37:43.296Z,12.10
2018-12-02T05:40:11.076Z,12.10
2018-12-02T05:42:38.502Z,12.10
2018-12-02T05:45:05.917Z,12.10
2018-12-02T05:47:33.531Z,12.10
2018-12-02T05:50:01.227Z,12.10
2018-12-02T05:52:28.914Z,12.10
2018-12-02T05:54:56.254Z,12.20
2018-12-02T05:57:23.739Z,12.20
2018-12-02T05:59:51.305Z,12.20
2018-12-02T06:02:18.994Z,12.20
2018-12-02T06:04:46.595Z,12.20
2018-12-02T06:07:14.007Z,12.20
2018-12-02T06:09:41.479Z,12.20
2018-12-02T06:12:08.929Z,12.20
2018-12-02T06:14:36.365Z,12.20
2018-12-02T06:17:03.795Z,12.20
2018-12-02T06:19:31.704Z,12.20
2018-12-02T06:21:59.099Z,12.30
2018-12-02T06:24:26.505Z,12.20
2018-12-02T06:26:53.909Z,12.30
2018-12-02T06:29:21.263Z,12.30
2018-12-02T06:31:49.103Z,12.30
2018-12-02T06:34:16.552Z,12.30
2018-12-02T06:36:44.027Z,12.30
2018-12-02T06:39:11.611Z,12.30
2018-12-02T06:41:39.040Z,12.30
2018-12-02T06:44:06.407Z,12.30
2018-12-02T06:46:33.834Z,12.40
2018-12-02T06:49:01.530Z,12.30
2018-12-02T06:51:28.845Z,12.30
2018-12-02T06:53:56.256Z,12.40
2018-12-02T06:56:24.062Z,12.40
2018-12-02T06:58:51.471Z,12.40
2018-12-02T07:01:18.964Z,12.40
2018-12-02T07:03:46.514Z,12.40
2018-12-02T07:06:13.930Z,12.40
2018-12-02T07:08:41.513Z,12.40
2018-12-02T07:11:09.003Z,12.40
2018-12-02T07:13:36.322Z,12.40
2018-12-02T07:16:03.714Z,12.40
2018-12-02T07:18:31.365Z,12.40
2018-12-02T07:20:58.768Z,12.40
2018-12-02T07:23:26.276Z,12.40
2018-12-02T07:25:53.933Z,12.50
2018-12-02T07:28:21.463Z,12.50
2018-12-02T07:30:49.230Z,12.50
2018-12-02T07:33:16.663Z,12.50
2018-12-02T07:35:44.128Z,12.50
2018-12-02T07:38:12.000Z,12.50
2018-12-02T07:40:39.672Z,12.50
2018-12-02T07:43:06.976Z,12.50
2018-12-02T07:45:34.329Z,12.50
2018-12-02T07:48:01.732Z,12.50
2018-12-02T07:50:29.454Z,12.60
2018-12-02T07:53:02.746Z,12.60
2018-12-02T07:55:30.188Z,12.60
2018-12-02T07:57:57.774Z,12.60
2018-12-02T08:00:25.146Z,12.60
2018-12-02T08:02:52.597Z,12.60
2018-12-02T08:05:20.678Z,12.60
2018-12-02T08:07:48.073Z,12.60
2018-12-02T08:10:15.405Z,12.60
2018-12-02T08:12:42.821Z,12.60
2018-12-02T08:15:10.303Z,12.60
2018-12-02T08:17:37.759Z,12.60
2018-12-02T08:20:05.203Z,12.70
2018-12-02T08:22:32.700Z,12.70
2018-12-02T08:25:00.173Z,12.70
2018-12-02T08:27:27.614Z,12.70
2018-12-02T08:29:55.112Z,12.70
2018-12-02T08:32:22.614Z,12.70
2018-12-02T08:34:50.183Z,12.70
2018-12-02T08:37:17.663Z,12.80
2018-12-02T08:39:45.660Z,12.80
2018-12-02T08:42:13.695Z,12.70
2018-12-02T08:44:41.248Z,12.80
2018-12-02T08:47:08.687Z,12.80
2018-12-02T08:49:36.307Z,12.80
2018-12-02T08:52:03.947Z,12.80
2018-12-02T08:54:31.372Z,12.80
2018-12-02T08:56:58.759Z,12.80
2018-12-02T08:59:26.346Z,12.80
2018-12-02T09:01:53.782Z,12.80
2018-12-02T09:04:21.704Z,12.80
2018-12-02T09:06:49.549Z,12.90
2018-12-02T09:09:16.934Z,12.90
2018-12-02T09:11:44.877Z,12.90
2018-12-02T09:14:12.635Z,12.90
2018-12-02T09:16:40.717Z,12.90
2018-12-02T09:19:08.241Z,12.90
2018-12-02T09:21:35.560Z,12.90
2018-12-02T09:24:02.968Z,12.90
2018-12-02T09:26:32.429Z,12.90
2018-12-02T09:28:59.738Z,13.00
2018-12-02T09:31:27.042Z,13.00
2018-12-02T09:33:54.656Z,13.00
2018-12-02T09:36:22.072Z,13.00
2018-12-02T09:38:49.460Z,13.00
2018-12-02T09:41:16.883Z,13.00
2018-12-02T09:43:44.735Z,13.00
2018-12-02T09:46:12.190Z,13.10
2018-12-02T09:48:39.623Z,13.10
2018-12-02T09:51:07.165Z,13.10
2018-12-02T09:53:34.609Z,13.10
2018-12-02T09:56:02.398Z,13.00
2018-12-02T09:58:30.368Z,13.10
2018-12-02T10:00:57.891Z,13.10
2018-12-02T10:03:25.514Z,13.20
2018-12-02T10:05:53.412Z,13.20
2018-12-02T10:08:20.815Z,13.20
2018-12-02T10:10:48.917Z,13.20
2018-12-02T10:13:16.795Z,13.20
2018-12-02T10:15:44.199Z,13.20
2018-12-02T10:18:12.064Z,13.20
2018-12-02T10:20:39.623Z,13.30
2018-12-02T10:23:06.983Z,13.30
2018-12-02T10:25:34.562Z,13.30
2018-12-02T10:28:02.441Z,13.30
2018-12-02T10:30:29.835Z,13.30
2018-12-02T10:32:57.503Z,13.30
2018-12-02T10:35:25.074Z,13.40
2018-12-02T10:37:52.441Z,13.30
2018-12-02T10:40:19.902Z,13.40
2018-12-02T10:42:47.710Z,13.40
2018-12-02T10:45:15.363Z,13.40
2018-12-02T10:47:42.803Z,13.40
2018-12-02T10:50:10.200Z,13.40
2018-12-02T10:52:38.756Z,13.40
2018-12-02T10:55:06.422Z,13.40
2018-12-02T10:57:33.884Z,13.40
2018-12-02T11:00:01.238Z,13.40
2018-12-02T11:02:29.972Z,13.40
2018-12-02T11:04:57.295Z,13.50
2018-12-02T11:07:24.725Z,13.50
2018-12-02T11:09:52.811Z,13.50
2018-12-02T11:12:20.512Z,13.50
2018-12-02T11:14:47.960Z,13.50
2018-12-02T11:17:15.254Z,13.50
2018-12-02T11:19:42.600Z,13.50
2018-12-02T11:22:09.982Z,13.50
2018-12-02T11:24:37.753Z,13.60
2018-12-02T11:27:05.236Z,13.60
2018-12-02T11:29:32.654Z,13.60
2018-12-02T11:32:00.018Z,13.60
2018-12-02T11:34:27.901Z,13.60
2018-12-02T11:36:55.322Z,13.60
2018-12-02T11:39:22.820Z,13.60
2018-12-02T11:41:50.193Z,13.60
2018-12-02T11:44:17.475Z,13.60
2018-12-02T11:46:45.296Z,13.60
2018-12-02T11:49:12.718Z,13.70
2018-12-02T11:51:40.529Z,13.70
2018-12-02T11:54:07.974Z,13.70
2018-12-02T11:56:35.419Z,13.70
2018-12-02T11:59:02.840Z,13.70
2018-12-02T12:01:30.311Z,13.70
2018-12-02T12:03:57.810Z,13.70
2018-12-02T12:06:25.224Z,13.70
2018-12-02T12:08:52.617Z,13.70
2018-12-02T12:11:19.914Z,13.70
2018-12-02T12:13:47.914Z,13.70
2018-12-02T12:16:15.331Z,13.80
2018-12-02T12:18:43.176Z,13.80
2018-12-02T12:21:11.000Z,13.80
2018-12-02T12:23:38.456Z,13.80
2018-12-02T12:26:05.803Z,13.80
2018-12-02T12:28:33.234Z,13.80
2018-12-02T12:31:00.651Z,13.80
2018-12-02T12:33:27.975Z,13.80
2018-12-02T12:35:55.343Z,13.50
2018-12-02T12:38:22.802Z,13.90
2018-12-02T12:40:50.161Z,13.90
2018-12-02T12:43:17.766Z,13.60
2018-12-02T12:45:45.248Z,13.90
2018-12-02T12:48:12.734Z,13.90
2018-12-02T12:50:40.229Z,13.90
2018-12-02T12:53:08.009Z,14.00
2018-12-02T12:55:35.419Z,13.90
2018-12-02T12:58:02.794Z,13.90
2018-12-02T13:00:30.235Z,13.90
2018-12-02T13:02:58.059Z,13.90
2018-12-02T13:05:26.381Z,13.90
2018-12-02T13:07:53.858Z,13.60
2018-12-02T13:10:21.735Z,14.00
2018-12-02T13:12:49.141Z,14.00
2018-12-02T13:15:16.468Z,14.00
2018-12-02T13:17:43.827Z,14.00
2018-12-02T13:20:11.249Z,14.00
2018-12-02T13:22:39.027Z,14.00
2018-12-02T13:25:06.836Z,14.00
2018-12-02T13:27:34.154Z,14.00
2018-12-02T13:30:01.715Z,14.00
2018-12-02T13:32:29.244Z,14.00
2018-12-02T13:34:57.088Z,14.00
2018-12-02T13:37:24.736Z,14.00
2018-12-02T13:39:52.240Z,14.00
2018-12-02T13:42:19.554Z,14.10
2018-12-02T13:44:47.004Z,14.10
2018-12-02T13:47:14.597Z,14.10
2018-12-02T13:49:42.106Z,13.90
2018-12-02T13:52:09.906Z,14.10
2018-12-02T13:54:39.988Z,14.10
2018-12-02T13:57:07.704Z,14.10
2018-12-02T13:59:35.205Z,14.10
2018-12-02T14:02:02.629Z,14.10
2018-12-02T14:04:30.226Z,14.10
2018-12-02T14:06:57.769Z,14.10
2018-12-02T14:09:25.345Z,14.10
2018-12-02T14:11:52.745Z,14.20
2018-12-02T14:14:20.922Z,14.20
2018-12-02T14:16:48.756Z,14.20
2018-12-02T14:19:16.755Z,13.80
2018-12-02T14:21:44.226Z,14.20
2018-12-02T14:24:11.727Z,14.20
2018-12-02T14:26:39.209Z,14.20
2018-12-02T14:29:06.631Z,14.20
2018-12-02T14:31:34.021Z,14.20
2018-12-02T14:34:52.465Z,14.20
2018-12-02T14:37:19.960Z,14.20
2018-12-02T14:39:47.318Z,14.20
2018-12-02T14:42:16.689Z,14.20
2018-12-02T14:44:44.121Z,14.20
2018-12-02T14:47:11.620Z,14.20
2018-12-02T14:49:38.994Z,14.20
2018-12-02T14:52:06.394Z,14.20
2018-12-02T14:54:33.693Z,14.20
2018-12-02T14:57:01.233Z,14.20
2018-12-02T14:59:28.976Z,14.20
2018-12-02T15:01:56.435Z,14.20
2018-12-02T15:04:23.878Z,14.30
2018-12-02T15:06:51.269Z,14.30
2018-12-02T15:09:19.346Z,14.20
2018-12-02T15:11:48.949Z,14.30
2018-12-02T15:14:16.349Z,14.30
2018-12-02T15:16:43.912Z,14.10
2018-12-02T15:19:11.324Z,14.30
2018-12-02T15:21:39.088Z,14.30
2018-12-02T15:24:07.076Z,14.30
2018-12-02T15:26:34.495Z,14.30
2018-12-02T15:29:02.110Z,14.30
2018-12-02T15:31:29.356Z,14.30
2018-12-02T15:33:56.882Z,14.30
2018-12-02T15:36:24.576Z,14.30
2018-12-02T15:38:52.187Z,14.30
2018-12-02T15:41:19.561Z,14.30
2018-12-02T15:43:47.023Z,14.30
2018-12-02T15:46:14.783Z,14.30
2018-12-02T15:48:42.170Z,14.30
2018-12-02T15:51:10.361Z,14.00
2018-12-02T15:53:37.749Z,14.30
2018-12-02T15:56:05.386Z,14.30
2018-12-02T15:58:32.837Z,14.30
2018-12-02T16:01:00.238Z,14.30
2018-12-02T16:03:27.911Z,14.30
2018-12-02T16:05:55.289Z,14.30
2018-12-02T16:08:22.637Z,14.30
2018-12-02T16:10:49.971Z,14.30
2018-12-02T16:13:17.413Z,14.30
2018-12-02T16:15:44.880Z,14.30
2018-12-02T16:18:12.569Z,14.30
2018-12-02T16:20:40.820Z,14.30
2018-12-02T16:23:08.671Z,14.30
2018-12-02T16:25:36.080Z,14.30
2018-12-02T16:28:03.793Z,14.30
2018-12-02T16:30:31.200Z,14.30
2018-12-02T16:32:58.582Z,14.30
2018-12-02T16:35:26.066Z,14.30
2018-12-02T16:37:53.513Z,14.30
2018-12-02T16:40:20.935Z,14.20
2018-12-02T16:42:48.368Z,14.20
2018-12-02T16:45:16.092Z,14.30
2018-12-02T16:47:43.486Z,14.30
2018-12-02T16:50:10.834Z,14.20
2018-12-02T16:52:38.410Z,14.20
2018-12-02T16:55:06.042Z,14.20
2018-12-02T16:57:33.480Z,14.20
2018-12-02T17:00:02.029Z,14.20
2018-12-02T17:02:30.724Z,14.20
2018-12-02T17:04:58.200Z,14.20
2018-12-02T17:07:25.900Z,14.20
2018-12-02T17:09:53.195Z,14.20
2018-12-02T17:12:20.969Z,14.20
2018-12-02T17:14:48.640Z,14.20
2018-12-02T17:17:16.078Z,14.20
2018-12-02T17:19:43.537Z,14.20
2018-12-02T17:22:11.534Z,14.20
2018-12-02T17:24:39.130Z,14.20
2018-12-02T17:27:06.497Z,14.20
2018-12-02T17:29:34.149Z,14.20
2018-12-02T17:32:01.492Z,14.20
2018-12-02T17:34:28.917Z,14.20
2018-12-02T17:36:56.342Z,14.20
2018-12-02T17:39:23.802Z,14.20
2018-12-02T17:41:51.474Z,14.20
2018-12-02T17:44:18.733Z,14.20
2018-12-02T17:46:46.665Z,14.20
2018-12-02T17:49:14.054Z,14.20
2018-12-02T17:51:41.604Z,14.20
2018-12-02T17:54:09.064Z,14.20
2018-12-02T17:56:36.385Z,14.20
2018-12-02T17:59:03.909Z,14.20
2018-12-02T18:01:31.683Z,14.20
2018-12-02T18:03:59.645Z,14.20
2018-12-02T18:06:27.231Z,14.20
2018-12-02T18:08:55.185Z,14.20
2018-12-02T18:11:22.606Z,14.20
2018-12-02T18:13:50.014Z,14.20
2018-12-02T18:16:17.447Z,14.20
2018-12-02T18:18:45.008Z,14.20
2018-12-02T18:21:12.363Z,14.20
2018-12-02T18:23:39.805Z,14.20
2018-12-02T18:26:07.112Z,14.20
2018-12-02T18:28:34.849Z,14.20
2018-12-02T18:31:02.139Z,14.20
2018-12-02T18:33:29.491Z,14.20
2018-12-02T18:35:56.805Z,14.20
2018-12-02T18:38:24.125Z,14.10
2018-12-02T18:40:51.391Z,14.20
2018-12-02T18:43:18.704Z,14.20
2018-12-02T18:45:46.423Z,14.10
2018-12-02T18:48:14.003Z,14.10
2018-12-02T18:50:42.025Z,14.10
2018-12-02T18:53:09.618Z,14.10
2018-12-02T18:55:37.298Z,14.10
2018-12-02T18:58:04.797Z,14.20
2018-12-02T19:00:45.276Z,14.20
2018-12-02T19:03:12.839Z,14.20
2018-12-02T19:05:40.402Z,14.20
2018-12-02T19:08:07.674Z,14.10
2018-12-02T19:10:35.106Z,14.10
2018-12-02T19:13:02.416Z,14.10
2018-12-02T19:15:30.061Z,14.10
2018-12-02T19:17:57.750Z,14.10
2018-12-02T19:20:25.617Z,14.10
2018-12-02T19:22:52.974Z,14.10
2018-12-02T19:25:21.054Z,14.20
2018-12-02T19:27:48.433Z,14.10
2018-12-02T19:30:15.706Z,14.10
2018-12-02T19:32:43.326Z,14.10
2018-12-02T19:35:10.667Z,14.10
2018-12-02T19:37:38.246Z,14.10
2018-12-02T19:40:05.756Z,14.10
2018-12-02T19:42:33.530Z,14.10
2018-12-02T19:45:00.956Z,14.10
2018-12-02T19:47:28.269Z,14.10
2018-12-02T19:49:55.883Z,14.10
2018-12-02T19:52:23.668Z,14.10
2018-12-02T19:54:51.083Z,14.10
2018-12-02T19:57:18.323Z,14.10
2018-12-02T19:59:45.618Z,14.10
2018-12-02T20:02:13.101Z,14.10
2018-12-02T20:04:40.507Z,14.10
2018-12-02T20:07:07.867Z,14.10
2018-12-02T20:09:35.216Z,14.10
2018-12-02T20:12:02.609Z,14.10
2018-12-02T20:14:29.983Z,13.70
2018-12-02T20:16:57.418Z,14.10
2018-12-02T20:19:42.525Z,14.10
2018-12-02T20:22:09.851Z,14.10
2018-12-02T20:24:41.439Z,14.10
2018-12-02T20:27:09.142Z,14.10
2018-12-02T20:29:46.502Z,14.10
2018-12-02T20:32:14.002Z,14.10
2018-12-02T20:34:41.581Z,14.10
2018-12-02T20:37:08.856Z,14.10
2018-12-02T20:39:36.215Z,14.10
2018-12-02T20:42:06.677Z,14.10
2018-12-02T20:44:34.276Z,14.10
2018-12-02T20:47:01.672Z,14.10
2018-12-02T20:49:29.019Z,14.10
2018-12-02T20:51:56.789Z,14.10
2018-12-02T20:54:24.174Z,14.10
2018-12-02T20:56:51.665Z,14.10
2018-12-02T20:59:19.229Z,14.10
2018-12-02T21:01:46.743Z,14.10
2018-12-02T21:04:14.237Z,14.10
2018-12-02T21:06:41.517Z,14.10
2018-12-02T21:09:08.936Z,13.80
2018-12-02T21:11:40.508Z,14.10
2018-12-02T21:14:06.036Z,14.00
2018-12-02T21:16:33.432Z,14.10
2018-12-02T21:19:01.014Z,14.10
2018-12-02T21:21:28.407Z,14.10
2018-12-02T21:23:55.829Z,14.10
2018-12-02T21:26:23.334Z,14.10
2018-12-02T21:28:50.667Z,14.10
2018-12-02T21:31:18.391Z,14.10
2018-12-02T21:33:48.749Z,14.10
2018-12-02T21:36:16.866Z,14.10
2018-12-02T21:38:44.596Z,14.00
2018-12-02T21:41:12.319Z,14.00
2018-12-02T21:43:39.948Z,14.00
2018-12-02T21:46:07.635Z,14.10
2018-12-02T21:48:35.072Z,14.10
2018-12-02T21:51:02.735Z,14.10
2018-12-02T21:53:30.160Z,14.10
2018-12-02T21:55:57.871Z,14.10
2018-12-02T21:58:26.109Z,14.10
2018-12-02T22:01:11.171Z,14.10
2018-12-02T22:03:38.584Z,14.10
2018-12-02T22:06:06.143Z,14.30
2018-12-02T22:08:33.533Z,14.10
2018-12-02T22:11:00.939Z,14.10
2018-12-02T22:13:29.272Z,14.10
2018-12-02T22:15:58.469Z,14.00
2018-12-02T22:18:27.875Z,14.10
2018-12-02T22:20:57.044Z,14.10
2018-12-02T22:23:26.327Z,14.10
2018-12-02T22:25:55.605Z,14.10
2018-12-02T22:28:25.271Z,14.00
2018-12-02T22:30:54.482Z,14.00
2018-12-02T22:33:23.644Z,14.10
2018-12-02T22:35:51.808Z,14.10
2018-12-02T22:38:21.010Z,14.10
2018-12-02T22:40:48.356Z,14.10
2018-12-02T22:43:15.833Z,14.10
2018-12-02T22:45:43.274Z,14.10
2018-12-02T22:48:10.718Z,14.10
2018-12-02T22:50:38.246Z,14.10
2018-12-02T22:53:05.613Z,14.10
2018-12-02T22:55:32.943Z,14.10
2018-12-02T22:58:00.301Z,14.10
2018-12-02T23:00:45.563Z,14.10
2018-12-02T23:03:16.724Z,14.10
2018-12-02T23:05:44.187Z,14.10
2018-12-02T23:08:11.636Z,14.10
2018-12-02T23:10:39.211Z,14.10
2018-12-02T23:13:06.596Z,14.10
2018-12-02T23:15:34.409Z,14.10
2018-12-02T23:18:01.848Z,14.10
2018-12-02T23:20:29.820Z,14.10
2018-12-02T23:22:57.607Z,14.10
2018-12-02T23:25:25.029Z,14.10
2018-12-02T23:27:52.800Z,14.10
2018-12-02T23:30:20.597Z,14.10
2018-12-02T23:32:47.964Z,14.10
2018-12-02T23:35:15.464Z,14.10
2018-12-02T23:37:42.676Z,14.10
2018-12-02T23:40:09.947Z,14.10
2018-12-02T23:42:37.362Z,14.10
2018-12-02T23:45:04.704Z,14.10
2018-12-02T23:47:32.000Z,14.10
2018-12-02T23:49:59.284Z,14.10
2018-12-02T23:52:26.608Z,14.10
2018-12-02T23:54:54.074Z,14.10
2018-12-02T23:57:21.478Z,14.10
2018-12-02T23:59:48.941Z,14.10
